createdAt,value
2019-02-11T00:00:29.900Z,5.65
2019-02-11T00:03:33.712Z,5.66
2019-02-11T00:06:37.553Z,5.60
2019-02-11T00:09:41.361Z,5.58
2019-02-11T00:12:45.199Z,5.58
2019-02-11T00:15:49.030Z,5.56
2019-02-11T00:18:53.012Z,5.53
2019-02-11T00:21:56.825Z,5.58
2019-02-11T00:25:00.644Z,5.54
2019-02-11T00:28:04.436Z,5.49
2019-02-11T00:31:08.255Z,5.50
2019-02-11T00:34:12.090Z,5.51
2019-02-11T00:37:15.898Z,5.66
2019-02-11T00:40:19.682Z,5.73
2019-02-11T00:43:23.542Z,5.69
2019-02-11T00:46:27.344Z,5.74
2019-02-11T00:49:31.151Z,5.72
2019-02-11T00:52:34.988Z,5.76
2019-02-11T00:55:38.822Z,5.74
2019-02-11T00:58:42.649Z,5.77
2019-02-11T01:01:46.554Z,5.80
2019-02-11T01:04:50.437Z,5.79
2019-02-11T01:07:54.252Z,5.88
2019-02-11T01:10:58.074Z,5.99
2019-02-11T01:14:01.962Z,5.99
2019-02-11T01:17:05.794Z,6.04
2019-02-11T01:20:11.643Z,6.11
2019-02-11T01:23:15.457Z,6.10
2019-02-11T01:26:19.364Z,6.10
2019-02-11T01:29:23.148Z,6.04
2019-02-11T01:32:26.960Z,6.15
2019-02-11T01:35:30.866Z,6.15
2019-02-11T01:38:34.656Z,6.25
2019-02-11T01:41:38.498Z,6.22
2019-02-11T01:44:42.298Z,6.23
2019-02-11T01:47:46.125Z,6.24
2019-02-11T01:50:49.955Z,6.29
2019-02-11T01:53:53.747Z,6.27
2019-02-11T01:56:57.535Z,6.28
2019-02-11T02:00:01.422Z,6.22
2019-02-11T02:03:05.346Z,6.24
2019-02-11T02:06:09.157Z,6.22
2019-02-11T02:09:13.031Z,6.24
2019-02-11T02:12:16.895Z,6.16
2019-02-11T02:15:20.761Z,6.16
2019-02-11T02:18:24.560Z,6.18
2019-02-11T02:21:28.368Z,6.14
2019-02-11T02:24:35.200Z,6.11
2019-02-11T02:27:39.070Z,6.15
2019-02-11T02:30:42.883Z,6.14
2019-02-11T02:33:46.672Z,6.15
2019-02-11T02:36:50.477Z,6.05
2019-02-11T02:39:54.363Z,6.13
2019-02-11T02:42:58.198Z,6.14
2019-02-11T02:46:02.018Z,6.08
2019-02-11T02:49:05.918Z,6.10
2019-02-11T02:52:09.745Z,6.14
2019-02-11T02:55:13.639Z,6.12
2019-02-11T02:58:17.440Z,6.06
2019-02-11T03:01:21.239Z,5.97
2019-02-11T03:04:25.093Z,6.08
2019-02-11T03:07:28.919Z,5.99
2019-02-11T03:10:33.746Z,5.94
2019-02-11T03:13:37.544Z,5.93
2019-02-11T03:16:41.342Z,5.97
2019-02-11T03:19:45.163Z,6.01
2019-02-11T03:22:48.956Z,6.01
2019-02-11T03:25:52.856Z,5.99
2019-02-11T03:28:56.639Z,5.95
2019-02-11T03:32:00.500Z,5.88
2019-02-11T03:35:04.522Z,5.93
2019-02-11T03:38:08.337Z,5.87
2019-02-11T03:41:12.152Z,5.84
2019-02-11T03:44:15.972Z,5.83
2019-02-11T03:47:19.779Z,5.80
2019-02-11T03:50:23.663Z,5.78
2019-02-11T03:53:27.539Z,5.77
2019-02-11T03:56:31.502Z,5.79
2019-02-11T03:59:35.279Z,5.79
2019-02-11T04:02:39.144Z,5.71
2019-02-11T04:05:42.922Z,5.61
2019-02-11T04:08:46.757Z,5.67
2019-02-11T04:11:50.564Z,5.73
2019-02-11T04:14:54.391Z,5.75
2019-02-11T04:17:58.227Z,5.72
2019-02-11T04:21:02.019Z,5.75
2019-02-11T04:24:05.911Z,5.76
2019-02-11T04:27:09.707Z,5.80
2019-02-11T04:30:13.788Z,5.78
2019-02-11T04:33:17.593Z,5.76
2019-02-11T04:36:21.400Z,5.78
2019-02-11T04:39:25.214Z,5.83
2019-02-11T04:42:29.102Z,5.81
2019-02-11T04:45:32.912Z,5.79
2019-02-11T04:48:36.789Z,5.74
2019-02-11T04:51:40.591Z,5.76
2019-02-11T04:54:44.395Z,5.69
2019-02-11T04:57:48.228Z,5.76
2019-02-11T05:00:52.022Z,5.76
2019-02-11T05:03:55.853Z,5.67
2019-02-11T05:06:59.658Z,5.67
2019-02-11T05:10:03.652Z,5.77
2019-02-11T05:13:07.435Z,5.67
2019-02-11T05:16:11.256Z,5.69
2019-02-11T05:19:15.076Z,5.67
2019-02-11T05:22:18.879Z,5.63
2019-02-11T05:25:22.703Z,5.65
2019-02-11T05:28:26.503Z,5.65
2019-02-11T05:31:32.617Z,5.64
2019-02-11T05:34:35.834Z,5.64
2019-02-11T05:37:39.710Z,5.58
2019-02-11T05:40:43.516Z,5.55
2019-02-11T05:43:47.335Z,5.59
2019-02-11T05:46:51.194Z,5.58
2019-02-11T05:49:55.008Z,5.54
2019-02-11T05:52:58.846Z,5.55
2019-02-11T05:56:02.655Z,5.53
2019-02-11T05:59:06.509Z,5.55
2019-02-11T06:02:10.464Z,5.56
2019-02-11T06:05:14.358Z,5.53
2019-02-11T06:08:18.183Z,5.55
2019-02-11T06:11:21.984Z,5.58
2019-02-11T06:14:25.788Z,5.54
2019-02-11T06:17:29.588Z,5.47
2019-02-11T06:20:33.459Z,5.49
2019-02-11T06:23:37.281Z,5.53
2019-02-11T06:26:41.149Z,5.43
2019-02-11T06:29:44.957Z,5.40
2019-02-11T06:32:48.758Z,5.42
2019-02-11T06:35:52.565Z,5.36
2019-02-11T06:38:56.566Z,5.30
2019-02-11T06:42:00.376Z,5.17
2019-02-11T06:45:12.528Z,5.21
2019-02-11T06:48:10.118Z,5.24
2019-02-11T06:51:13.987Z,5.17
2019-02-11T06:54:17.766Z,5.13
2019-02-11T06:57:21.579Z,5.09
2019-02-11T07:00:25.527Z,5.21
2019-02-11T07:03:29.366Z,5.07
2019-02-11T07:06:33.171Z,5.12
2019-02-11T07:09:37.010Z,5.10
2019-02-11T07:12:40.973Z,5.10
2019-02-11T07:15:44.799Z,5.17
2019-02-11T07:18:48.616Z,5.08
2019-02-11T07:21:52.408Z,5.02
2019-02-11T07:24:56.214Z,5.09
2019-02-11T07:28:00.090Z,5.06
2019-02-11T07:31:03.976Z,5.09
2019-02-11T07:34:07.786Z,5.11
2019-02-11T07:37:11.595Z,5.11
2019-02-11T07:40:15.489Z,5.15
2019-02-11T07:43:25.629Z,4.98
2019-02-11T07:46:33.645Z,5.01
2019-02-11T07:49:37.580Z,5.06
2019-02-11T07:52:41.446Z,5.04
2019-02-11T07:55:45.225Z,5.09
2019-02-11T07:58:49.065Z,5.17
2019-02-11T08:01:52.854Z,5.18
2019-02-11T08:04:56.697Z,5.19
2019-02-11T08:08:00.506Z,5.14
2019-02-11T08:11:05.001Z,5.18
2019-02-11T08:14:08.866Z,5.21
2019-02-11T08:17:12.687Z,5.21
2019-02-11T08:20:16.484Z,5.30
2019-02-11T08:23:20.287Z,5.20
2019-02-11T08:26:24.089Z,5.25
2019-02-11T08:29:27.883Z,5.29
2019-02-11T08:32:31.707Z,5.17
2019-02-11T08:35:35.524Z,5.18
2019-02-11T08:38:39.360Z,5.20
2019-02-11T08:41:43.231Z,5.15
2019-02-11T08:44:47.075Z,5.26
2019-02-11T08:47:50.872Z,5.25
2019-02-11T08:50:54.700Z,5.26
2019-02-11T08:53:58.542Z,5.33
2019-02-11T08:57:02.333Z,5.35
2019-02-11T09:00:06.382Z,5.45
2019-02-11T09:03:10.199Z,5.34
2019-02-11T09:06:14.095Z,5.43
2019-02-11T09:09:18.089Z,5.26
2019-02-11T09:12:22.049Z,5.30
2019-02-11T09:15:25.844Z,5.35
2019-02-11T09:18:29.819Z,5.48
2019-02-11T09:21:33.686Z,5.47
2019-02-11T09:24:37.641Z,5.79
2019-02-11T09:27:41.425Z,6.01
2019-02-11T09:30:45.406Z,6.13
2019-02-11T09:33:49.271Z,6.13
2019-02-11T09:36:53.089Z,6.17
2019-02-11T09:39:56.996Z,6.11
2019-02-11T09:43:00.791Z,6.02
2019-02-11T09:46:04.695Z,6.11
2019-02-11T09:49:08.664Z,6.30
2019-02-11T09:52:12.495Z,6.42
2019-02-11T09:55:19.240Z,6.43
2019-02-11T09:58:23.077Z,6.47
2019-02-11T10:01:26.878Z,6.67
2019-02-11T10:04:30.758Z,6.74
2019-02-11T10:07:34.675Z,6.83
2019-02-11T10:10:38.501Z,6.81
2019-02-11T10:13:42.284Z,6.66
2019-02-11T10:16:46.161Z,6.64
2019-02-11T10:19:50.039Z,6.68
2019-02-11T10:22:53.950Z,6.75
2019-02-11T10:25:57.835Z,6.78
2019-02-11T10:29:01.735Z,6.72
2019-02-11T10:32:05.690Z,6.67
2019-02-11T10:35:10.398Z,6.68
2019-02-11T10:38:14.279Z,6.74
2019-02-11T10:41:19.141Z,6.70
2019-02-11T10:44:22.942Z,6.78
2019-02-11T10:47:26.863Z,6.90
2019-02-11T10:50:30.754Z,7.07
2019-02-11T10:53:34.717Z,7.19
2019-02-11T10:56:38.549Z,7.16
2019-02-11T10:59:42.387Z,7.06
2019-02-11T11:02:46.277Z,7.08
2019-02-11T11:05:50.195Z,7.13
2019-02-11T11:08:53.993Z,7.14
2019-02-11T11:11:57.822Z,7.11
2019-02-11T11:15:01.631Z,7.22
2019-02-11T11:18:06.811Z,7.40
2019-02-11T11:21:12.919Z,7.31
2019-02-11T11:24:16.717Z,7.24
2019-02-11T11:27:20.589Z,7.30
2019-02-11T11:30:24.480Z,7.47
2019-02-11T11:33:28.266Z,7.51
2019-02-11T11:36:32.200Z,7.48
2019-02-11T11:39:36.168Z,7.53
2019-02-11T11:42:40.002Z,7.62
2019-02-11T11:45:43.819Z,7.61
2019-02-11T11:48:47.697Z,7.58
2019-02-11T11:51:51.594Z,7.46
2019-02-11T11:54:55.460Z,7.48
2019-02-11T11:57:59.428Z,7.53
2019-02-11T12:01:03.712Z,7.49
2019-02-11T12:04:07.605Z,7.55
2019-02-11T12:07:11.587Z,7.65
2019-02-11T12:10:15.425Z,7.54
2019-02-11T12:13:22.952Z,7.40
2019-02-11T12:16:24.783Z,7.40
2019-02-11T12:19:28.585Z,7.37
2019-02-11T12:22:32.416Z,7.22
2019-02-11T12:25:36.276Z,7.13
2019-02-11T12:28:40.153Z,7.19
2019-02-11T12:31:43.950Z,7.25
2019-02-11T12:34:47.753Z,7.19
2019-02-11T12:37:51.564Z,7.07
2019-02-11T12:40:55.408Z,7.01
2019-02-11T12:43:59.202Z,7.00
2019-02-11T12:47:13.874Z,7.12
2019-02-11T12:50:09.861Z,7.06
2019-02-11T12:53:13.714Z,7.15
2019-02-11T12:56:17.534Z,7.20
2019-02-11T12:59:21.408Z,7.14
2019-02-11T13:02:25.227Z,7.15
2019-02-11T13:05:44.367Z,7.08
2019-02-11T13:08:36.157Z,7.09
2019-02-11T13:11:40.105Z,7.18
2019-02-11T13:14:43.906Z,7.27
2019-02-11T13:17:47.888Z,7.23
2019-02-11T13:20:51.680Z,7.23
2019-02-11T13:23:55.531Z,7.29
2019-02-11T13:26:59.330Z,7.10
2019-02-11T13:30:03.212Z,7.18
2019-02-11T13:33:07.032Z,7.18
2019-02-11T13:36:10.839Z,7.11
2019-02-11T13:39:14.689Z,7.19
2019-02-11T13:42:18.565Z,7.22
2019-02-11T13:45:22.622Z,7.21
2019-02-11T13:48:26.655Z,7.23
2019-02-11T13:51:30.546Z,7.19
2019-02-11T13:54:34.508Z,7.23
2019-02-11T13:57:38.947Z,7.11
2019-02-11T14:00:43.641Z,7.09
2019-02-11T14:03:47.535Z,7.05
2019-02-11T14:06:51.488Z,6.98
2019-02-11T14:09:55.439Z,7.03
2019-02-11T14:12:59.476Z,6.93
2019-02-11T14:16:03.350Z,6.91
2019-02-11T14:19:07.265Z,6.94
2019-02-11T14:22:11.298Z,6.92
2019-02-11T14:25:15.357Z,6.88
2019-02-11T14:28:19.335Z,6.81
2019-02-11T14:31:23.225Z,6.84
2019-02-11T14:34:27.037Z,6.74
2019-02-11T14:37:30.933Z,6.77
2019-02-11T14:40:34.749Z,6.61
2019-02-11T14:43:38.528Z,6.59
2019-02-11T14:46:42.441Z,6.56
2019-02-11T14:49:46.276Z,6.47
2019-02-11T14:52:50.073Z,6.45
2019-02-11T14:55:53.860Z,6.28
2019-02-11T14:58:57.651Z,6.29
2019-02-11T15:02:01.477Z,6.12
2019-02-11T15:05:05.644Z,6.09
2019-02-11T15:08:09.424Z,6.03
2019-02-11T15:11:13.215Z,6.05
2019-02-11T15:14:17.029Z,6.04
2019-02-11T15:17:20.891Z,5.92
2019-02-11T15:20:24.667Z,5.80
2019-02-11T15:23:28.472Z,5.59
2019-02-11T15:26:32.384Z,5.61
2019-02-11T15:29:36.183Z,5.52
2019-02-11T15:32:40.032Z,5.50
2019-02-11T15:35:43.837Z,5.49
2019-02-11T15:38:47.662Z,5.45
2019-02-11T15:41:51.467Z,5.38
2019-02-11T15:44:55.294Z,5.31
2019-02-11T15:47:59.195Z,5.38
2019-02-11T15:51:03.046Z,5.30
2019-02-11T15:54:06.846Z,5.36
2019-02-11T15:57:10.683Z,5.21
2019-02-11T16:00:16.504Z,5.11
2019-02-11T16:03:20.393Z,5.15
2019-02-11T16:06:24.187Z,5.05
2019-02-11T16:09:27.975Z,5.00
2019-02-11T16:12:31.855Z,4.98
2019-02-11T16:15:35.669Z,4.91
2019-02-11T16:18:39.493Z,4.87
2019-02-11T16:21:43.298Z,4.90
2019-02-11T16:24:47.947Z,4.82
2019-02-11T16:27:51.772Z,4.81
2019-02-11T16:30:55.580Z,4.81
2019-02-11T16:33:59.398Z,4.80
2019-02-11T16:37:03.276Z,4.73
2019-02-11T16:40:10.011Z,4.72
2019-02-11T16:43:13.799Z,4.68
2019-02-11T16:46:17.666Z,4.58
2019-02-11T16:49:21.499Z,4.55
2019-02-11T16:52:25.303Z,4.54
2019-02-11T16:55:29.178Z,4.61
2019-02-11T16:58:32.987Z,4.69
2019-02-11T17:01:36.864Z,4.57
2019-02-11T17:04:40.674Z,4.59
2019-02-11T17:07:44.604Z,4.64
2019-02-11T17:10:48.467Z,4.62
2019-02-11T17:13:52.260Z,4.50
2019-02-11T17:16:56.037Z,4.55
2019-02-11T17:19:59.847Z,4.44
2019-02-11T17:23:03.708Z,4.48
2019-02-11T17:26:07.525Z,4.55
2019-02-11T17:29:11.311Z,4.51
2019-02-11T17:32:15.163Z,4.57
2019-02-11T17:35:19.041Z,4.57
2019-02-11T17:38:22.884Z,4.65
2019-02-11T17:41:26.684Z,4.61
2019-02-11T17:44:30.587Z,4.65
2019-02-11T17:47:34.476Z,4.72
2019-02-11T17:50:38.381Z,4.60
2019-02-11T17:53:42.166Z,4.70
2019-02-11T17:56:46.171Z,4.67
2019-02-11T17:59:49.972Z,4.60
2019-02-11T18:02:53.871Z,4.63
2019-02-11T18:05:57.788Z,4.63
2019-02-11T18:09:01.584Z,4.53
2019-02-11T18:12:05.658Z,4.43
2019-02-11T18:15:10.187Z,4.33
2019-02-11T18:18:14.015Z,4.29
2019-02-11T18:21:17.825Z,4.12
2019-02-11T18:24:21.622Z,4.22
2019-02-11T18:27:25.524Z,4.11
2019-02-11T18:30:29.328Z,4.05
2019-02-11T18:33:33.121Z,4.02
2019-02-11T18:36:36.927Z,4.02
2019-02-11T18:39:40.759Z,4.00
2019-02-11T18:42:45.526Z,4.01
2019-02-11T18:45:49.391Z,3.98
2019-02-11T18:48:53.225Z,3.95
2019-02-11T18:51:57.203Z,3.91
2019-02-11T18:55:01.049Z,3.91
2019-02-11T18:58:04.842Z,3.92
2019-02-11T19:01:08.631Z,3.98
2019-02-11T19:04:12.594Z,3.92
2019-02-11T19:07:16.424Z,3.93
2019-02-11T19:10:20.373Z,3.90
2019-02-11T19:13:24.177Z,3.86
2019-02-11T19:16:27.969Z,3.94
2019-02-11T19:19:31.772Z,3.93
2019-02-11T19:22:35.643Z,4.02
2019-02-11T19:25:39.444Z,3.91
2019-02-11T19:28:43.407Z,3.95
2019-02-11T19:31:47.229Z,3.87
2019-02-11T19:34:51.035Z,3.94
2019-02-11T19:37:54.829Z,3.91
2019-02-11T19:40:58.642Z,3.94
2019-02-11T19:44:02.573Z,3.85
2019-02-11T19:47:06.424Z,3.82
2019-02-11T19:50:11.930Z,3.87
2019-02-11T19:53:15.722Z,3.78
2019-02-11T19:56:19.515Z,3.80
2019-02-11T19:59:23.369Z,3.82
2019-02-11T20:02:27.156Z,3.84
2019-02-11T20:05:30.983Z,3.80
2019-02-11T20:08:34.987Z,3.74
2019-02-11T20:11:38.776Z,3.68
2019-02-11T20:14:42.620Z,3.83
2019-02-11T20:17:46.619Z,3.80
2019-02-11T20:20:50.424Z,3.71
2019-02-11T20:23:54.256Z,3.63
2019-02-11T20:26:58.050Z,3.63
2019-02-11T20:30:01.924Z,3.68
2019-02-11T20:33:05.716Z,3.70
2019-02-11T20:36:09.540Z,3.68
2019-02-11T20:39:13.353Z,3.75
2019-02-11T20:42:17.337Z,3.78
2019-02-11T20:45:25.637Z,3.81
2019-02-11T20:48:29.432Z,3.86
2019-02-11T20:51:33.277Z,3.99
2019-02-11T20:54:37.085Z,4.01
2019-02-11T20:57:41.067Z,4.02
2019-02-11T21:00:44.855Z,4.02
2019-02-11T21:03:48.674Z,4.00
2019-02-11T21:06:52.486Z,4.06
2019-02-11T21:09:56.281Z,3.97
2019-02-11T21:13:00.159Z,3.94
2019-02-11T21:16:04.043Z,3.99
2019-02-11T21:19:07.858Z,4.02
2019-02-11T21:22:11.715Z,3.98
2019-02-11T21:25:15.666Z,3.84
2019-02-11T21:28:19.507Z,3.87
2019-02-11T21:31:23.330Z,3.88
2019-02-11T21:34:27.203Z,3.83
2019-02-11T21:37:31.015Z,3.88
2019-02-11T21:40:34.828Z,3.91
2019-02-11T21:43:38.656Z,3.97
2019-02-11T21:46:42.434Z,4.10
2019-02-11T21:49:46.333Z,4.03
2019-02-11T21:52:50.134Z,4.11
2019-02-11T21:55:53.933Z,4.09
2019-02-11T21:58:57.866Z,4.13
2019-02-11T22:02:01.692Z,4.08
2019-02-11T22:05:05.728Z,4.10
2019-02-11T22:08:09.645Z,4.09
2019-02-11T22:11:13.461Z,4.04
2019-02-11T22:14:17.264Z,4.04
2019-02-11T22:17:21.056Z,4.06
2019-02-11T22:20:24.950Z,4.10
2019-02-11T22:23:28.763Z,4.05
2019-02-11T22:26:32.561Z,3.92
2019-02-11T22:29:36.437Z,3.96
2019-02-11T22:32:40.301Z,3.81
2019-02-11T22:35:44.129Z,3.94
2019-02-11T22:38:47.931Z,3.83
2019-02-11T22:41:51.759Z,3.74
2019-02-11T22:44:55.546Z,3.74
2019-02-11T22:47:59.331Z,3.75
2019-02-11T22:51:03.220Z,3.79
2019-02-11T22:54:06.973Z,3.80
2019-02-11T22:57:10.806Z,3.86
2019-02-11T23:00:25.804Z,3.81
2019-02-11T23:03:29.667Z,3.83
2019-02-11T23:06:33.464Z,3.84
2019-02-11T23:09:37.278Z,3.90
2019-02-11T23:16:44.932Z,3.68
2019-02-11T23:19:48.879Z,3.72
2019-02-11T23:22:52.722Z,3.63
2019-02-11T23:25:56.576Z,3.75
2019-02-11T23:29:00.485Z,3.83
2019-02-11T23:32:04.468Z,3.78
2019-02-11T23:35:08.416Z,3.85
2019-02-11T23:38:12.295Z,3.89
2019-02-11T23:41:16.199Z,3.85
2019-02-11T23:44:20.050Z,3.91
2019-02-11T23:47:23.883Z,4.00
2019-02-11T23:50:27.756Z,4.09
2019-02-11T23:53:31.588Z,4.00
